Time;durP1;ratioP1;P1;durP2;ratioP2;P2;SDS_P1;SDS_P2;PMS_P1;PMS_P2;Temp;Humidity;BMP_temperature;BMP_pressure;BME280_temperature;BME280_humidity;BME280_pressure;Samples;Min_cycle;Max_cycle;Signal;HPM_P1;HPM_P2
2022/04/14 00:00:09;;;;;;;0.10;0.10;;;15.50;99.90;;;;;;5033637;28;20529;-66
2022/04/14 00:02:35;;;;;;;0.03;0.03;;;15.40;99.90;;;;;;5033903;28;20041;-66
2022/04/14 00:05:01;;;;;;;0.00;0.00;;;15.40;99.90;;;;;;5015698;28;20025;-66
2022/04/14 00:07:27;;;;;;;0.20;0.20;;;15.40;99.90;;;;;;5015229;28;20056;-66
2022/04/14 00:09:52;;;;;;;0.13;0.13;;;15.30;99.90;;;;;;5033377;28;20094;-66
2022/04/14 00:12:18;;;;;;;1.02;0.95;;;15.20;99.90;;;;;;5033516;28;20109;-66
2022/04/14 00:14:44;;;;;;;0.20;0.20;;;15.10;99.90;;;;;;5015603;28;20135;-66
2022/04/14 00:17:12;;;;;;;0.03;0.03;;;15.10;99.90;;;;;;5033118;28;20400;-65
2022/04/14 00:19:39;;;;;;;1.45;1.35;;;15.00;99.90;;;;;;5033374;28;20025;-65
2022/04/14 00:22:05;;;;;;;0.40;0.28;;;15.00;99.90;;;;;;4999120;28;20025;-65
2022/04/14 00:24:30;;;;;;;0.30;0.30;;;15.00;99.90;;;;;;5015521;28;20143;-65
2022/04/14 00:26:56;;;;;;;0.73;0.65;;;14.80;99.90;;;;;;5032926;28;20091;-65
2022/04/14 00:29:22;;;;;;;4.55;0.90;;;14.70;99.90;;;;;;5032167;28;20091;-65
2022/04/14 00:31:48;;;;;;;1.30;0.70;;;14.70;99.90;;;;;;5015245;28;20041;-65
2022/04/14 00:34:13;;;;;;;0.38;0.38;;;14.60;99.90;;;;;;5032889;28;20056;-66
2022/04/14 00:36:39;;;;;;;0.55;0.55;;;14.50;99.90;;;;;;5032448;28;20208;-66
2022/04/14 00:39:05;;;;;;;0.85;0.43;;;14.50;99.90;;;;;;5033002;28;20044;-66
2022/04/14 00:41:30;;;;;;;0.50;0.50;;;14.40;99.90;;;;;;5032692;28;20021;-65
2022/04/14 00:43:56;;;;;;;0.35;0.32;;;14.40;99.90;;;;;;5032779;28;20489;-65
2022/04/14 00:46:22;;;;;;;0.70;0.38;;;14.30;99.90;;;;;;5032531;28;20114;-65
2022/04/14 00:48:52;;;;;;;7.57;1.42;;;14.30;99.90;;;;;;5014907;28;20029;-65
2022/04/14 00:51:18;;;;;;;0.35;0.35;;;14.30;99.90;;;;;;5014999;28;20069;-66
2022/04/14 00:53:44;;;;;;;0.30;0.30;;;14.20;99.90;;;;;;5032661;28;20103;-65
2022/04/14 00:56:10;;;;;;;0.20;0.20;;;14.20;99.90;;;;;;5015003;28;20045;-65
2022/04/14 00:58:36;;;;;;;1.20;1.10;;;14.10;99.90;;;;;;5032139;28;20509;-65
2022/04/14 01:01:05;;;;;;;0.63;0.45;;;14.10;99.90;;;;;;5032144;28;20036;-65
2022/04/14 01:03:32;;;;;;;1.98;1.33;;;14.10;99.90;;;;;;5032094;28;20424;-65
2022/04/14 01:05:59;;;;;;;1.60;1.50;;;14.10;99.90;;;;;;5013201;28;20577;-65
2022/04/14 01:08:27;;;;;;;0.28;0.28;;;14.00;99.90;;;;;;5024477;28;20401;-65
2022/04/14 01:10:54;;;;;;;1.17;0.73;;;14.00;99.90;;;;;;5003343;28;20036;-67
2022/04/14 01:13:21;;;;;;;0.10;0.10;;;14.00;99.90;;;;;;5014628;28;20076;-65
2022/04/14 01:15:48;;;;;;;0.43;0.32;;;13.90;99.90;;;;;;5021462;28;20660;-65
2022/04/14 01:18:15;;;;;;;0.28;0.28;;;13.90;99.90;;;;;;5010878;28;20026;-66
2022/04/14 01:20:43;;;;;;;2.40;0.47;;;13.90;99.90;;;;;;5010998;28;20040;-66
2022/04/14 01:23:11;;;;;;;0.55;0.55;;;13.90;99.90;;;;;;5011828;28;20374;-66
2022/04/14 01:25:38;;;;;;;0.75;0.75;;;13.80;99.90;;;;;;5031925;28;20486;-66
2022/04/14 01:28:05;;;;;;;2.25;1.38;;;13.80;99.90;;;;;;5013738;28;20037;-66
2022/04/14 01:30:31;;;;;;;4.57;0.70;;;13.70;99.90;;;;;;5014329;28;20053;-66
2022/04/14 01:32:57;;;;;;;0.95;0.85;;;13.70;99.90;;;;;;5014298;28;20060;-66
2022/04/14 01:35:24;;;;;;;0.95;0.82;;;13.70;99.90;;;;;;5014409;28;20052;-66
2022/04/14 01:37:50;;;;;;;1.00;0.95;;;13.70;99.90;;;;;;5031560;28;20022;-65
2022/04/14 01:40:17;;;;;;;0.20;0.20;;;13.70;99.90;;;;;;5012553;28;20067;-66
2022/04/14 01:42:42;;;;;;;0.47;0.47;;;13.70;99.90;;;;;;5012037;28;20121;-66
2022/04/14 01:45:10;;;;;;;0.40;0.40;;;13.70;99.90;;;;;;5010709;28;20483;-65
2022/04/14 01:47:42;;;;;;;2.75;1.80;;;13.70;99.90;;;;;;5011546;28;20030;-66
2022/04/14 01:50:09;;;;;;;;;;;13.70;99.90;;;;;;5011029;28;20052;-67
2022/04/14 01:52:36;;;;;;;3.40;1.83;;;13.70;99.90;;;;;;5011298;28;19909;-65
2022/04/14 01:55:05;;;;;;;2.65;1.52;;;13.70;99.90;;;;;;5010663;28;20509;-65
2022/04/14 01:57:32;;;;;;;0.55;0.55;;;13.70;99.90;;;;;;5010278;28;20034;-66
2022/04/14 02:00:05;;;;;;;0.43;0.43;;;13.70;99.90;;;;;;5011427;28;20128;-66
2022/04/14 02:02:30;;;;;;;0.82;0.65;;;13.70;99.90;;;;;;4993862;28;20025;-66
2022/04/14 02:04:56;;;;;;;0.65;0.65;;;13.60;99.90;;;;;;5011673;28;20037;-65
2022/04/14 02:07:22;;;;;;;3.22;1.30;;;13.60;99.90;;;;;;5010927;28;20485;-66
2022/04/14 02:09:47;;;;;;;0.10;0.10;;;13.60;99.90;;;;;;5011490;28;20033;-66
2022/04/14 02:12:13;;;;;;;0.35;0.35;;;13.60;99.90;;;;;;5010943;28;20037;-65
2022/04/14 02:14:39;;;;;;;0.30;0.30;;;13.70;99.90;;;;;;5014876;28;20091;-65
2022/04/14 02:17:05;;;;;;;1.38;1.02;;;13.70;99.90;;;;;;5030796;28;20025;-65
2022/04/14 02:19:31;;;;;;;0.98;0.88;;;13.60;99.90;;;;;;5030987;28;20088;-65
2022/04/14 02:22:00;;;;;;;2.83;2.40;;;13.60;99.90;;;;;;5031040;28;20449;-66
2022/04/14 02:24:26;;;;;;;0.73;0.70;;;13.50;99.90;;;;;;5031136;28;20025;-65
2022/04/14 02:26:53;;;;;;;1.20;1.10;;;13.50;99.90;;;;;;5030446;28;20497;-65
2022/04/14 02:29:20;;;;;;;1.40;0.30;;;13.40;99.90;;;;;;5013343;28;20052;-65
2022/04/14 02:31:46;;;;;;;1.08;0.63;;;13.40;99.90;;;;;;5012995;28;20025;-65
2022/04/14 02:34:13;;;;;;;0.20;0.20;;;13.30;99.90;;;;;;5030455;28;20555;-65
2022/04/14 02:36:39;;;;;;;0.08;0.08;;;13.30;99.90;;;;;;5030356;28;20125;-65
2022/04/14 02:39:04;;;;;;;1.77;0.98;;;13.30;99.90;;;;;;5012820;28;20574;-66
2022/04/14 02:41:30;;;;;;;1.02;0.75;;;13.20;99.90;;;;;;5030685;28;20033;-66
2022/04/14 02:43:56;;;;;;;1.05;1.05;;;13.20;99.90;;;;;;5030888;28;20029;-66
2022/04/14 02:46:22;;;;;;;0.68;0.68;;;13.20;99.90;;;;;;5030637;28;20092;-66
2022/04/14 02:48:47;;;;;;;0.68;0.68;;;13.10;99.90;;;;;;5030553;28;20064;-66
2022/04/14 02:51:13;;;;;;;1.15;0.88;;;13.10;99.90;;;;;;5029986;28;20029;-65
2022/04/14 02:53:39;;;;;;;1.20;1.10;;;13.10;99.90;;;;;;5030217;28;20029;-65
2022/04/14 02:56:09;;;;;;;0.73;0.73;;;13.10;99.90;;;;;;5030336;28;20108;-65
2022/04/14 02:58:37;;;;;;;0.22;0.22;;;13.00;99.90;;;;;;5012838;28;20030;-65
2022/04/14 03:01:03;;;;;;;0.43;0.43;;;13.10;99.90;;;;;;5030209;28;20056;-65
2022/04/14 03:03:29;;;;;;;0.40;0.40;;;13.10;99.90;;;;;;5017028;28;20083;-65
2022/04/14 03:05:55;;;;;;;0.90;0.90;;;13.00;99.90;;;;;;4998222;28;20437;-65
2022/04/14 03:08:21;;;;;;;1.15;0.93;;;13.00;99.90;;;;;;4993487;28;20042;-65
2022/04/14 03:10:47;;;;;;;0.47;0.47;;;12.90;99.90;;;;;;5011341;28;20041;-65
2022/04/14 03:13:13;;;;;;;0.40;0.40;;;12.90;99.90;;;;;;5029799;28;20041;-65
2022/04/14 03:15:38;;;;;;;0.55;0.55;;;12.90;99.90;;;;;;5022561;28;20075;-65
2022/04/14 03:18:05;;;;;;;1.25;0.95;;;12.90;99.90;;;;;;5029650;28;20037;-66
2022/04/14 03:20:31;;;;;;;2.85;2.30;;;12.90;99.90;;;;;;5012698;28;20470;-66
2022/04/14 03:22:58;;;;;;;3.20;1.95;;;12.80;99.90;;;;;;5012167;28;20025;-66
2022/04/14 03:25:24;;;;;;;5.05;2.20;;;12.80;99.90;;;;;;4978350;28;20033;-66
2022/04/14 03:27:50;;;;;;;0.55;0.55;;;12.90;99.90;;;;;;4990524;28;20030;-66
2022/04/14 03:30:16;;;;;;;0.52;0.50;;;12.90;99.90;;;;;;4990912;28;20035;-65
2022/04/14 03:32:46;;;;;;;1.13;0.77;;;12.80;99.90;;;;;;4973301;28;20038;-65
2022/04/14 03:35:13;;;;;;;1.67;1.57;;;12.90;99.90;;;;;;4990532;28;20041;-65
2022/04/14 03:37:40;;;;;;;0.17;0.17;;;12.90;99.90;;;;;;4990355;28;20053;-65
2022/04/14 03:40:07;;;;;;;0.50;0.50;;;12.90;99.90;;;;;;4990697;28;20080;-66
2022/04/14 03:42:35;;;;;;;2.10;1.92;;;12.90;99.90;;;;;;5002678;28;20602;-66
2022/04/14 03:45:05;;;;;;;0.55;0.55;;;12.90;99.90;;;;;;5030131;28;20033;-65
2022/04/14 03:47:32;;;;;;;0.50;0.50;;;12.90;99.90;;;;;;5012707;28;20032;-65
2022/04/14 03:49:57;;;;;;;1.55;1.38;;;12.90;99.90;;;;;;5029769;28;20036;-65
2022/04/14 03:52:23;;;;;;;0.63;0.63;;;12.90;99.90;;;;;;5029947;28;20033;-65
2022/04/14 03:54:49;;;;;;;3.75;2.05;;;12.90;99.90;;;;;;5029866;28;20080;-66
2022/04/14 03:57:15;;;;;;;0.38;0.38;;;12.80;99.90;;;;;;5029876;28;20033;-66
2022/04/14 03:59:40;;;;;;;5.30;2.83;;;12.80;99.90;;;;;;5029685;28;20036;-66
2022/04/14 04:02:06;;;;;;;7.43;2.78;;;12.80;99.90;;;;;;5029773;28;20021;-66
2022/04/14 04:04:32;;;;;;;1.58;0.88;;;12.90;99.90;;;;;;5032075;28;20022;-66
2022/04/14 04:06:59;;;;;;;3.67;2.30;;;12.90;99.90;;;;;;5006277;28;20445;-65
2022/04/14 04:09:26;;;;;;;0.45;0.45;;;12.90;99.90;;;;;;5015675;28;20030;-64
2022/04/14 04:11:53;;;;;;;0.47;0.47;;;12.90;99.90;;;;;;5015943;28;20485;-67
2022/04/14 04:14:20;;;;;;;1.48;1.13;;;12.90;99.90;;;;;;5015433;28;20029;-66
2022/04/14 04:16:47;;;;;;;1.30;1.20;;;12.90;99.90;;;;;;5006308;28;20152;-65
2022/04/14 04:19:13;;;;;;;0.65;0.38;;;12.90;99.90;;;;;;5021970;28;20076;-65
2022/04/14 04:21:38;;;;;;;0.38;0.38;;;12.90;99.90;;;;;;5013896;28;20033;-64
2022/04/14 04:24:05;;;;;;;1.02;0.80;;;12.80;99.90;;;;;;4997599;28;20034;-65
2022/04/14 04:26:30;;;;;;;7.75;2.97;;;12.80;99.90;;;;;;5009639;28;20026;-64
2022/04/14 04:28:56;;;;;;;1.58;1.48;;;12.80;99.90;;;;;;5016090;28;20022;-65
2022/04/14 04:31:22;;;;;;;1.70;1.60;;;12.90;99.90;;;;;;5011453;28;20030;-65
2022/04/14 04:33:51;;;;;;;7.95;2.28;;;12.90;99.90;;;;;;5012599;28;20037;-65
2022/04/14 04:36:20;;;;;;;1.38;1.23;;;12.90;99.90;;;;;;5012323;28;20040;-66
2022/04/14 04:38:47;;;;;;;0.90;0.90;;;12.90;99.90;;;;;;5011387;28;20477;-66
2022/04/14 04:41:13;;;;;;;1.17;1.10;;;12.90;99.90;;;;;;5011470;28;20026;-66
2022/04/14 04:43:38;;;;;;;0.52;0.52;;;12.90;99.90;;;;;;4958262;28;20383;-66
2022/04/14 04:46:04;;;;;;;0.20;0.20;;;12.90;99.90;;;;;;5022629;28;20114;-66
2022/04/14 04:48:30;;;;;;;1.50;1.40;;;12.90;99.90;;;;;;5031995;28;20029;-68
2022/04/14 04:50:56;;;;;;;1.38;1.27;;;12.90;99.90;;;;;;5014143;28;20087;-65
2022/04/14 04:53:21;;;;;;;0.45;0.45;;;12.90;99.90;;;;;;5032533;28;20037;-65
2022/04/14 04:55:47;;;;;;;1.88;1.33;;;12.90;99.90;;;;;;5014361;28;20032;-65
2022/04/14 04:58:14;;;;;;;1.55;1.45;;;12.80;99.90;;;;;;5014054;28;20497;-64
2022/04/14 05:00:41;;;;;;;1.38;1.27;;;12.80;99.90;;;;;;5014609;28;20025;-64
2022/04/14 05:03:11;;;;;;;2.50;1.08;;;12.80;99.90;;;;;;5013969;28;20025;-65
2022/04/14 05:05:38;;;;;;;1.40;1.30;;;12.80;99.90;;;;;;5031776;28;20036;-66
2022/04/14 05:08:05;;;;;;;0.55;0.55;;;12.80;99.90;;;;;;5014342;28;20030;-66
2022/04/14 05:10:33;;;;;;;1.20;1.15;;;12.80;99.90;;;;;;5031781;28;20108;-65
2022/04/14 05:12:59;;;;;;;0.20;0.20;;;12.80;99.90;;;;;;5014480;28;20104;-65
2022/04/14 05:15:25;;;;;;;0.80;0.80;;;12.80;99.90;;;;;;5030757;28;20031;-67
2022/04/14 05:17:51;;;;;;;3.10;1.20;;;12.80;99.90;;;;;;5013847;28;20061;-67
2022/04/14 05:20:16;;;;;;;2.05;1.85;;;12.80;99.90;;;;;;5007385;28;20111;-67
2022/04/14 05:22:42;;;;;;;2.30;1.25;;;12.90;99.90;;;;;;4994739;28;20068;-67
2022/04/14 05:25:08;;;;;;;0.50;0.50;;;12.80;99.90;;;;;;5011519;28;20029;-67
2022/04/14 05:27:34;;;;;;;2.85;1.15;;;12.80;99.90;;;;;;5011613;28;20034;-67
2022/04/14 05:30:00;;;;;;;0.50;0.50;;;12.80;99.90;;;;;;4994285;28;20572;-67
2022/04/14 05:32:26;;;;;;;10.70;1.80;;;12.80;99.90;;;;;;5011496;28;20433;-67
2022/04/14 05:34:52;;;;;;;0.43;0.43;;;12.90;99.90;;;;;;4993956;28;20378;-66
2022/04/14 05:37:18;;;;;;;0.77;0.75;;;12.90;99.90;;;;;;4994113;28;20490;-66
2022/04/14 05:39:44;;;;;;;0.63;0.63;;;13.00;99.90;;;;;;5011618;28;20129;-66
2022/04/14 05:42:10;;;;;;;1.98;1.55;;;13.00;99.90;;;;;;5011714;28;20045;-66
2022/04/14 05:44:36;;;;;;;0.28;0.28;;;13.00;99.90;;;;;;5011584;28;20053;-66
2022/04/14 05:47:02;;;;;;;2.40;2.08;;;13.00;99.90;;;;;;5029528;28;20022;-66
2022/04/14 05:49:28;;;;;;;1.25;1.15;;;13.10;99.90;;;;;;5031190;28;20025;-67
2022/04/14 05:51:53;;;;;;;0.30;0.30;;;13.10;99.90;;;;;;5031045;28;20396;-67
2022/04/14 05:54:19;;;;;;;1.00;0.90;;;13.10;99.90;;;;;;5031262;28;20440;-67
2022/04/14 05:56:45;;;;;;;2.70;2.47;;;13.10;99.90;;;;;;5013461;28;20037;-67
2022/04/14 05:59:16;;;;;;;2.05;1.90;;;13.20;99.90;;;;;;5011762;28;20026;-66
2022/04/14 06:01:46;;;;;;;1.25;1.15;;;13.10;99.90;;;;;;5002004;28;20058;-66
2022/04/14 06:04:12;;;;;;;1.57;1.47;;;13.20;99.90;;;;;;5009902;28;20536;-66
2022/04/14 06:06:39;;;;;;;0.52;0.52;;;13.10;99.90;;;;;;5011080;28;20033;-67
2022/04/14 06:09:05;;;;;;;0.50;0.50;;;13.10;99.90;;;;;;5009904;28;20117;-67
2022/04/14 06:11:31;;;;;;;3.42;3.10;;;13.10;99.90;;;;;;4993471;28;20168;-66
2022/04/14 06:13:57;;;;;;;4.95;2.05;;;13.20;99.90;;;;;;5011013;28;20028;-62
2022/04/14 06:16:23;;;;;;;1.75;1.65;;;13.20;99.90;;;;;;5021846;28;20040;-67
2022/04/14 06:18:49;;;;;;;2.22;0.98;;;13.30;99.90;;;;;;5013174;28;20033;-67
2022/04/14 06:21:14;;;;;;;1.42;1.35;;;13.40;99.90;;;;;;5030870;28;20044;-67
2022/04/14 06:23:40;;;;;;;1.30;1.20;;;13.40;99.90;;;;;;5023776;28;20026;-67
2022/04/14 06:26:06;;;;;;;3.55;1.45;;;13.50;99.90;;;;;;5010038;28;20026;-66
2022/04/14 06:28:34;;;;;;;1.63;1.52;;;13.50;99.90;;;;;;5009294;28;20057;-67
2022/04/14 06:31:00;;;;;;;0.80;0.80;;;13.60;99.90;;;;;;5010205;28;20026;-67
2022/04/14 06:33:30;;;;;;;1.90;1.80;;;13.60;99.90;;;;;;5009722;28;20568;-67
2022/04/14 06:35:58;;;;;;;0.40;0.40;;;13.70;99.90;;;;;;5009693;28;20032;-67
2022/04/14 06:38:27;;;;;;;3.83;2.85;;;13.70;99.90;;;;;;5010574;28;20030;-66
2022/04/14 06:40:53;;;;;;;1.13;1.05;;;13.70;99.90;;;;;;5009556;28;20088;-66
2022/04/14 06:43:24;;;;;;;0.93;0.93;;;13.80;99.90;;;;;;5010832;28;20038;-67
2022/04/14 06:45:51;;;;;;;3.72;2.40;;;13.80;99.90;;;;;;5018926;28;20519;-67
2022/04/14 06:48:17;;;;;;;1.63;1.52;;;13.90;99.90;;;;;;5012640;28;20075;-66
2022/04/14 06:50:43;;;;;;;0.75;0.75;;;13.90;99.90;;;;;;5030035;28;20029;-67
2022/04/14 06:53:09;;;;;;;0.38;0.38;;;13.90;99.90;;;;;;5012437;28;20583;-66
2022/04/14 06:55:36;;;;;;;1.38;1.15;;;14.00;99.90;;;;;;5012622;28;20032;-66
2022/04/14 06:58:02;;;;;;;1.15;0.90;;;14.00;99.90;;;;;;5029548;28;20120;-66
2022/04/14 07:00:29;;;;;;;0.60;0.60;;;14.10;99.90;;;;;;5029854;28;20076;-68
2022/04/14 07:02:57;;;;;;;2.75;2.33;;;14.20;99.90;;;;;;5012514;28;20535;-67
2022/04/14 07:05:24;;;;;;;4.75;1.75;;;14.30;99.90;;;;;;4996598;28;20040;-67
2022/04/14 07:07:50;;;;;;;0.50;0.50;;;14.30;99.90;;;;;;5004285;23;20080;-64
2022/04/14 07:10:16;;;;;;;1.65;1.30;;;14.50;99.90;;;;;;4976528;28;20053;-64
2022/04/14 07:12:44;;;;;;;0.55;0.55;;;14.60;99.90;;;;;;4972966;28;20026;-64
2022/04/14 07:15:11;;;;;;;1.92;1.38;;;14.70;99.90;;;;;;4979147;28;20029;-64
2022/04/14 07:17:37;;;;;;;1.25;0.88;;;14.90;99.90;;;;;;5008846;28;20113;-64
2022/04/14 07:20:05;;;;;;;0.88;0.88;;;15.00;99.90;;;;;;4992838;28;20041;-63
2022/04/14 07:22:40;;;;;;;1.35;0.75;;;15.10;99.90;;;;;;4992326;28;20481;-64
2022/04/14 07:25:07;;;;;;;2.55;0.80;;;15.20;99.90;;;;;;4991119;28;20032;-64
2022/04/14 07:27:32;;;;;;;0.98;0.88;;;15.20;99.90;;;;;;4990271;28;20026;-65
2022/04/14 07:29:58;;;;;;;0.80;0.80;;;15.30;99.90;;;;;;4990823;28;20107;-65
2022/04/14 07:32:24;;;;;;;0.25;0.25;;;15.50;99.90;;;;;;4991101;28;20038;-63
2022/04/14 07:34:49;;;;;;;1.30;0.80;;;15.60;99.90;;;;;;4990763;28;20463;-64
2022/04/14 07:37:15;;;;;;;7.57;1.05;;;15.70;99.90;;;;;;4972645;28;20030;-66
2022/04/14 07:39:41;;;;;;;0.60;0.60;;;15.80;99.90;;;;;;4994453;28;20081;-63
2022/04/14 07:42:07;;;;;;;1.27;1.05;;;15.80;99.90;;;;;;4994590;28;20022;-64
2022/04/14 07:44:32;;;;;;;0.13;0.13;;;15.90;99.90;;;;;;4993581;28;20026;-64
2022/04/14 07:46:59;;;;;;;60.30;2.45;;;16.10;99.90;;;;;;5011997;28;20025;-63
2022/04/14 07:49:27;;;;;;;0.85;0.63;;;16.10;99.90;;;;;;5013716;28;20065;-63
2022/04/14 07:51:55;;;;;;;2.47;0.40;;;16.10;99.90;;;;;;5013733;28;20718;-64
2022/04/14 07:54:22;;;;;;;0.30;0.30;;;16.20;99.90;;;;;;5013353;28;20393;-64
2022/04/14 07:56:48;;;;;;;0.95;0.90;;;16.30;99.90;;;;;;5013114;28;20028;-63
2022/04/14 07:59:13;;;;;;;0.95;0.70;;;16.30;99.90;;;;;;4983875;28;20109;-64
2022/04/14 08:01:39;;;;;;;0.77;0.47;;;16.40;99.90;;;;;;4993750;28;20109;-63
2022/04/14 08:04:05;;;;;;;1.70;1.60;;;16.50;99.90;;;;;;4993843;28;20031;-63
2022/04/14 08:06:31;;;;;;;0.15;0.15;;;16.60;99.90;;;;;;4993257;28;20034;-64
2022/04/14 08:08:57;;;;;;;2.38;1.20;;;16.70;99.90;;;;;;4992803;28;20022;-64
2022/04/14 08:11:23;;;;;;;0.77;0.75;;;16.60;99.90;;;;;;4994029;28;20068;-65
2022/04/14 08:13:49;;;;;;;0.65;0.65;;;16.60;99.90;;;;;;4992657;28;20073;-64
2022/04/14 08:16:15;;;;;;;1.05;0.98;;;16.70;99.90;;;;;;5005155;28;20482;-65
2022/04/14 08:18:41;;;;;;;0.30;0.30;;;16.70;99.90;;;;;;4995864;28;20030;-64
2022/04/14 08:21:07;;;;;;;0.95;0.95;;;16.70;99.90;;;;;;5012898;28;20022;-64
2022/04/14 08:23:38;;;;;;;3.90;1.70;;;16.80;99.90;;;;;;4995437;28;20029;-65
2022/04/14 08:26:08;;;;;;;0.22;0.22;;;16.80;99.90;;;;;;4973881;28;20026;-65
2022/04/14 08:28:41;;;;;;;3.30;1.55;;;16.80;99.90;;;;;;4992276;28;20124;-65
2022/04/14 08:31:11;;;;;;;1.60;1.50;;;16.80;99.90;;;;;;4993413;28;20030;-65
2022/04/14 08:33:37;;;;;;;1.27;1.15;;;16.80;99.90;;;;;;4976081;28;20041;-64
2022/04/14 08:36:12;;;;;;;0.55;0.55;;;16.80;99.90;;;;;;4994005;28;20037;-64
2022/04/14 08:38:40;;;;;;;3.60;1.67;;;16.80;99.90;;;;;;4976403;28;20582;-65
2022/04/14 08:41:08;;;;;;;4.85;1.35;;;16.80;99.90;;;;;;4976394;28;20134;-64
2022/04/14 08:43:36;;;;;;;3.28;1.55;;;16.80;99.90;;;;;;4976133;28;20053;-64
2022/04/14 08:46:03;;;;;;;3.50;2.80;;;16.80;99.90;;;;;;5002757;28;20028;-65
2022/04/14 08:48:31;;;;;;;0.40;0.40;;;16.70;99.90;;;;;;4995110;28;20125;-65
2022/04/14 08:50:57;;;;;;;1.15;1.05;;;16.70;99.90;;;;;;4994685;28;20024;-64
2022/04/14 08:53:27;;;;;;;0.20;0.20;;;16.60;99.90;;;;;;4995220;28;20117;-65
2022/04/14 08:55:53;;;;;;;0.52;0.50;;;16.60;99.90;;;;;;5012873;28;20022;-64
2022/04/14 08:58:22;;;;;;;1.60;1.02;;;16.70;99.90;;;;;;5012389;28;20080;-65
2022/04/14 09:00:49;;;;;;;3.53;1.13;;;16.70;99.90;;;;;;5012683;28;20564;-64
2022/04/14 09:03:18;;;;;;;1.25;1.15;;;16.80;99.90;;;;;;5012484;28;20026;-64
2022/04/14 09:05:44;;;;;;;0.55;0.55;;;16.80;99.90;;;;;;5012511;28;20033;-64
2022/04/14 09:08:10;;;;;;;1.67;1.58;;;16.80;99.90;;;;;;5011695;28;20030;-64
2022/04/14 09:10:36;;;;;;;1.30;1.20;;;17.00;99.90;;;;;;5012373;28;20386;-64
2022/04/14 09:13:02;;;;;;;1.02;0.90;;;17.00;99.90;;;;;;5012137;28;20026;-64
2022/04/14 09:15:28;;;;;;;1.77;1.58;;;17.10;99.90;;;;;;4994687;28;20037;-64
2022/04/14 09:17:54;;;;;;;1.85;1.35;;;17.20;99.90;;;;;;5011576;28;20034;-64
2022/04/14 09:20:38;;;;;;;1.15;0.90;;;17.30;99.90;;;;;;5012249;28;20029;-64
2022/04/14 09:23:11;;;;;;;1.15;1.05;;;17.20;99.90;;;;;;5012176;28;20437;-64
2022/04/14 09:25:37;;;;;;;1.05;1.05;;;17.20;99.90;;;;;;5011816;28;20109;-64
2022/04/14 09:28:20;;;;;;;3.15;1.02;;;17.20;99.90;;;;;;4977555;28;20113;-64
2022/04/14 09:31:08;;;;;;;2.50;1.33;;;17.20;99.90;;;;;;4985605;28;20133;-64
2022/04/14 09:33:46;;;;;;;2.10;1.00;;;17.20;99.90;;;;;;4992582;28;20551;-64
2022/04/14 09:36:18;;;;;;;2.90;1.42;;;17.10;99.90;;;;;;4976104;28;20042;-64
2022/04/14 09:38:55;;;;;;;0.10;0.10;;;17.20;99.90;;;;;;4974694;28;20401;-65
2022/04/14 09:41:40;;;;;;;0.52;0.45;;;17.00;99.90;;;;;;4992317;28;20062;-64
2022/04/14 09:44:16;;;;;;;1.95;1.45;;;17.00;99.90;;;;;;4974529;28;20393;-64
2022/04/14 09:46:46;;;;;;;0.65;0.65;;;17.20;99.90;;;;;;4989372;28;20424;-64
2022/04/14 09:49:14;;;;;;;0.80;0.80;;;17.40;99.90;;;;;;4993895;28;20022;-64
2022/04/14 09:51:46;;;;;;;0.90;0.90;;;17.60;99.90;;;;;;5011309;28;20034;-64
2022/04/14 09:54:18;;;;;;;3.53;1.38;;;17.80;99.90;;;;;;4993340;28;20032;-65
2022/04/14 09:56:51;;;;;;;4.57;2.72;;;18.10;99.90;;;;;;5010853;28;20034;-63
2022/04/14 09:59:40;;;;;;;0.63;0.63;;;18.30;99.90;;;;;;4994048;28;20142;-64
2022/04/14 10:02:15;;;;;;;1.75;0.57;;;18.40;99.90;;;;;;4993997;28;20044;-65
2022/04/14 10:04:44;;;;;;;19.38;2.08;;;18.50;99.90;;;;;;4993682;28;20022;-64
2022/04/14 10:07:17;;;;;;;1.55;1.10;;;18.60;99.90;;;;;;4993301;28;20037;-64
2022/04/14 10:09:48;;;;;;;1.48;1.25;;;18.70;99.90;;;;;;5011970;28;20036;-66
2022/04/14 10:12:34;;;;;;;3.85;0.95;;;18.90;99.90;;;;;;4994219;28;20528;-65
2022/04/14 10:15:07;;;;;;;1.67;1.27;;;19.20;99.90;;;;;;5010704;28;20069;-64
2022/04/14 10:17:40;;;;;;;2.22;1.85;;;19.40;99.90;;;;;;4993594;28;20026;-64
2022/04/14 10:20:12;;;;;;;1.67;1.58;;;19.40;99.90;;;;;;4993442;28;20119;-66
2022/04/14 10:22:38;;;;;;;0.75;0.75;;;19.50;99.90;;;;;;4994149;28;20363;-64
2022/04/14 10:25:06;;;;;;;2.13;1.52;;;19.50;99.90;;;;;;4984622;28;20118;-64
2022/04/14 10:27:33;;;;;;;0.60;0.52;;;19.50;99.90;;;;;;4991036;28;20153;-64
2022/04/14 10:29:59;;;;;;;0.55;0.52;;;19.60;99.90;;;;;;4989834;28;20062;-63
2022/04/14 10:32:26;;;;;;;0.82;0.70;;;19.50;99.90;;;;;;4973572;28;20042;-63
2022/04/14 10:34:54;;;;;;;2.40;1.42;;;19.80;99.90;;;;;;4971985;28;20070;-63
2022/04/14 10:37:29;;;;;;;1.02;1.02;;;20.00;99.90;;;;;;4991908;28;20041;-63
2022/04/14 10:39:55;;;;;;;0.77;0.77;;;20.30;99.90;;;;;;4973379;28;20632;-63
2022/04/14 10:42:29;;;;;;;1.13;1.02;;;20.30;99.90;;;;;;4971061;28;20033;-63
2022/04/14 10:44:55;;;;;;;1.60;0.82;;;20.40;99.90;;;;;;4977951;28;20030;-63
2022/04/14 10:48:00;;;;;;;2.10;1.50;;;20.60;99.90;;;;;;4973813;28;20033;-64
2022/04/14 10:50:33;;;;;;;0.90;0.73;;;20.70;99.90;;;;;;4921793;29;20373;-62
2022/04/14 10:53:17;;;;;;;22.10;2.00;;;20.50;99.90;;;;;;4930438;29;20043;-63
2022/04/14 10:55:47;;;;;;;1.27;1.00;;;20.80;99.90;;;;;;4937554;29;20035;-63
2022/04/14 10:58:37;;;;;;;1.25;0.68;;;21.00;99.90;;;;;;4929011;29;20028;-63
2022/04/14 11:01:03;;;;;;;5.65;1.70;;;20.80;99.90;;;;;;4941525;29;20051;-64
2022/04/14 11:03:48;;;;;;;0.47;0.47;;;21.10;99.90;;;;;;4949311;29;20078;-64
2022/04/14 11:06:41;;;;;;;1.33;0.93;;;21.10;99.90;;;;;;4942806;29;20046;-64
2022/04/14 11:09:26;;;;;;;3.25;0.70;;;20.90;99.90;;;;;;4945261;29;20035;-63
2022/04/14 11:12:01;;;;;;;1.45;1.35;;;21.00;99.90;;;;;;4944646;29;20439;-63
2022/04/14 11:14:27;;;;;;;1.80;1.50;;;21.30;99.90;;;;;;4938720;29;20124;-63
2022/04/14 11:16:55;;;;;;;0.30;0.30;;;21.30;99.90;;;;;;4942201;29;20128;-63
2022/04/14 11:19:22;;;;;;;0.08;0.08;;;21.20;99.90;;;;;;4925697;29;20079;-63
2022/04/14 11:22:01;;;;;;;0.63;0.55;;;21.40;99.70;;;;;;4978531;28;20061;-63
2022/04/14 11:24:43;;;;;;;0.05;0.05;;;21.20;99.90;;;;;;4993749;28;20076;-63
2022/04/14 11:27:24;;;;;;;0.70;0.65;;;21.40;99.90;;;;;;4983854;28;20117;-63
2022/04/14 11:29:57;;;;;;;1.48;0.45;;;21.30;99.40;;;;;;4994267;28;20037;-64
2022/04/14 11:32:40;;;;;;;0.52;0.52;;;21.60;99.30;;;;;;4989341;28;20030;-63
2022/04/14 11:35:16;;;;;;;3.10;0.73;;;21.80;98.60;;;;;;4981474;28;20029;-63
2022/04/14 11:37:46;;;;;;;0.30;0.30;;;22.20;98.00;;;;;;4954750;28;20086;-63
2022/04/14 11:40:18;;;;;;;0.60;0.60;;;22.00;97.70;;;;;;4990858;28;20026;-64
2022/04/14 11:42:57;;;;;;;0.35;0.28;;;22.00;97.40;;;;;;4973340;28;20486;-63
2022/04/14 11:45:26;;;;;;;1.65;1.27;;;22.00;97.30;;;;;;4998797;28;20048;-63
2022/04/14 11:47:59;;;;;;;0.47;0.47;;;22.30;96.80;;;;;;5009792;28;20079;-63
2022/04/14 11:50:29;;;;;;;0.25;0.25;;;22.50;96.30;;;;;;5001157;28;20032;-64
2022/04/14 11:53:01;;;;;;;1.10;1.00;;;22.40;96.50;;;;;;4992695;28;20030;-63
2022/04/14 11:55:42;;;;;;;0.68;0.68;;;22.30;96.10;;;;;;4982458;28;20026;-63
2022/04/14 11:58:14;;;;;;;3.22;1.50;;;22.50;95.40;;;;;;4992618;28;20116;-64
2022/04/14 12:00:51;;;;;;;1.10;0.65;;;22.50;95.50;;;;;;4978809;28;20031;-64
2022/04/14 12:03:31;;;;;;;0.20;0.20;;;22.70;94.90;;;;;;4988942;28;20486;-63
2022/04/14 12:06:02;;;;;;;0.27;0.27;;;22.60;96.20;;;;;;4975711;28;20036;-64
2022/04/14 12:08:28;;;;;;;1.17;0.75;;;22.90;95.50;;;;;;5009632;28;20338;-64
2022/04/14 12:10:54;;;;;;;0.20;0.20;;;23.10;95.10;;;;;;4998016;28;20144;-64
2022/04/14 12:13:21;;;;;;;0.40;0.30;;;22.90;94.50;;;;;;4972059;28;20165;-64
2022/04/14 12:16:04;;;;;;;0.00;0.00;;;22.90;94.00;;;;;;4977572;28;20029;-64
2022/04/14 12:18:30;;;;;;;0.93;0.75;;;22.80;95.00;;;;;;4970106;28;20517;-63
2022/04/14 12:20:56;;;;;;;0.00;0.00;;;22.10;95.90;;;;;;4997908;28;20037;-63
2022/04/14 12:23:21;;;;;;;2.75;0.80;;;22.60;95.20;;;;;;4988071;28;20027;-64
2022/04/14 12:25:47;;;;;;;0.90;0.52;;;22.90;94.50;;;;;;4985503;28;20030;-64
2022/04/14 12:28:13;;;;;;;0.10;0.10;;;23.00;94.60;;;;;;4971856;28;20045;-64
2022/04/14 12:30:42;;;;;;;0.00;0.00;;;23.40;93.80;;;;;;4996647;28;20026;-63
2022/04/14 12:33:09;;;;;;;0.73;0.73;;;23.50;93.60;;;;;;4992220;28;20061;-63
2022/04/14 12:35:43;;;;;;;3.58;0.65;;;22.70;94.70;;;;;;5003171;28;20617;-63
2022/04/14 12:38:16;;;;;;;1.10;0.93;;;23.10;94.40;;;;;;5012574;28;20046;-63
2022/04/14 12:41:03;;;;;;;0.20;0.20;;;23.20;94.30;;;;;;4986945;28;20076;-63
2022/04/14 12:43:39;;;;;;;0.00;0.00;;;23.80;93.20;;;;;;5012831;28;20034;-63
2022/04/14 12:46:26;;;;;;;0.68;0.38;;;24.20;92.00;;;;;;4986669;28;20030;-64
2022/04/14 12:49:10;;;;;;;14.15;1.73;;;23.30;93.00;;;;;;5009853;28;20042;-63
2022/04/14 12:51:39;;;;;;;3.33;0.80;;;23.20;92.80;;;;;;5003108;28;20057;-64
2022/04/14 12:54:07;;;;;;;0.10;0.10;;;23.20;92.50;;;;;;4996232;28;20125;-64